sensor_id;sensor_type;location;lat;lon;timestamp;temperature;humidity
44047;DHT22;29713;-33.888;151.150;2023-04-26T00:02:00;21.10;99.90
44047;DHT22;29713;-33.888;151.150;2023-04-26T00:04:30;21.20;99.90
44047;DHT22;29713;-33.888;151.150;2023-04-26T00:06:57;21.20;99.90
44047;DHT22;29713;-33.888;151.150;2023-04-26T00:09:26;21.30;99.90
44047;DHT22;29713;-33.888;151.150;2023-04-26T00:11:53;21.40;99.90
44047;DHT22;29713;-33.888;151.150;2023-04-26T00:14:20;21.40;99.90
44047;DHT22;29713;-33.888;151.150;2023-04-26T00:16:48;21.50;99.90
44047;DHT22;29713;-33.888;151.150;2023-04-26T00:19:15;21.60;99.90
44047;DHT22;29713;-33.888;151.150;2023-04-26T00:21:43;21.90;99.90
44047;DHT22;29713;-33.888;151.150;2023-04-26T00:24:10;22.00;99.90
44047;DHT22;29713;-33.888;151.150;2023-04-26T00:26:38;22.00;99.90
44047;DHT22;29713;-33.888;151.150;2023-04-26T00:29:05;22.30;99.90
44047;DHT22;29713;-33.888;151.150;2023-04-26T00:31:32;22.40;99.90
44047;DHT22;29713;-33.888;151.150;2023-04-26T00:34:00;22.50;99.90
44047;DHT22;29713;-33.888;151.150;2023-04-26T00:36:27;22.60;99.90
44047;DHT22;29713;-33.888;151.150;2023-04-26T00:38:54;22.70;99.90
44047;DHT22;29713;-33.888;151.150;2023-04-26T00:41:22;22.70;99.90
44047;DHT22;29713;-33.888;151.150;2023-04-26T00:43:49;22.80;99.90
44047;DHT22;29713;-33.888;151.150;2023-04-26T00:46:17;23.00;99.90
44047;DHT22;29713;-33.888;151.150;2023-04-26T00:48:44;23.20;99.90
44047;DHT22;29713;-33.888;151.150;2023-04-26T00:51:12;23.10;99.90
44047;DHT22;29713;-33.888;151.150;2023-04-26T00:53:41;23.10;99.90
44047;DHT22;29713;-33.888;151.150;2023-04-26T00:56:12;23.20;99.90
44047;DHT22;29713;-33.888;151.150;2023-04-26T00:58:39;23.30;99.90
44047;DHT22;29713;-33.888;151.150;2023-04-26T01:01:07;23.40;99.90
44047;DHT22;29713;-33.888;151.150;2023-04-26T01:03:35;23.50;99.90
44047;DHT22;29713;-33.888;151.150;2023-04-26T01:06:03;23.50;99.90
44047;DHT22;29713;-33.888;151.150;2023-04-26T01:08:30;23.60;99.90
44047;DHT22;29713;-33.888;151.150;2023-04-26T01:10:58;23.70;99.90
44047;DHT22;29713;-33.888;151.150;2023-04-26T01:13:26;23.80;99.90
44047;DHT22;29713;-33.888;151.150;2023-04-26T01:15:54;23.90;99.90
44047;DHT22;29713;-33.888;151.150;2023-04-26T01:18:22;24.10;99.90
44047;DHT22;29713;-33.888;151.150;2023-04-26T01:20:50;24.00;99.90
44047;DHT22;29713;-33.888;151.150;2023-04-26T01:23:18;24.10;99.90
44047;DHT22;29713;-33.888;151.150;2023-04-26T01:25:46;24.10;99.90
44047;DHT22;29713;-33.888;151.150;2023-04-26T01:28:14;24.10;99.90
44047;DHT22;29713;-33.888;151.150;2023-04-26T01:30:41;24.00;99.90
44047;DHT22;29713;-33.888;151.150;2023-04-26T01:33:09;23.90;99.90
44047;DHT22;29713;-33.888;151.150;2023-04-26T01:35:36;23.70;99.90
44047;DHT22;29713;-33.888;151.150;2023-04-26T01:38:04;23.50;99.90
44047;DHT22;29713;-33.888;151.150;2023-04-26T01:40:31;23.40;99.90
44047;DHT22;29713;-33.888;151.150;2023-04-26T01:42:59;23.30;99.90
44047;DHT22;29713;-33.888;151.150;2023-04-26T01:45:28;23.10;99.90
44047;DHT22;29713;-33.888;151.150;2023-04-26T01:47:56;23.00;99.90
44047;DHT22;29713;-33.888;151.150;2023-04-26T01:50:24;23.00;99.90
44047;DHT22;29713;-33.888;151.150;2023-04-26T01:52:51;22.90;99.90
44047;DHT22;29713;-33.888;151.150;2023-04-26T01:55:19;22.80;99.90
44047;DHT22;29713;-33.888;151.150;2023-04-26T01:57:46;22.70;99.90
44047;DHT22;29713;-33.888;151.150;2023-04-26T02:00:13;22.60;99.90
44047;DHT22;29713;-33.888;151.150;2023-04-26T02:02:41;22.50;99.90
44047;DHT22;29713;-33.888;151.150;2023-04-26T02:05:09;22.50;99.90
44047;DHT22;29713;-33.888;151.150;2023-04-26T02:07:37;22.40;99.90
44047;DHT22;29713;-33.888;151.150;2023-04-26T02:10:05;22.40;99.90
44047;DHT22;29713;-33.888;151.150;2023-04-26T02:12:33;22.40;99.90
44047;DHT22;29713;-33.888;151.150;2023-04-26T02:15:00;22.40;99.90
44047;DHT22;29713;-33.888;151.150;2023-04-26T02:17:28;22.30;99.90
44047;DHT22;29713;-33.888;151.150;2023-04-26T02:19:56;22.30;99.90
44047;DHT22;29713;-33.888;151.150;2023-04-26T02:22:23;22.30;99.90
44047;DHT22;29713;-33.888;151.150;2023-04-26T02:24:51;22.20;99.90
44047;DHT22;29713;-33.888;151.150;2023-04-26T02:27:19;22.30;99.90
44047;DHT22;29713;-33.888;151.150;2023-04-26T02:29:46;22.50;99.90
44047;DHT22;29713;-33.888;151.150;2023-04-26T02:32:14;22.60;99.90
44047;DHT22;29713;-33.888;151.150;2023-04-26T02:34:43;22.70;99.90
44047;DHT22;29713;-33.888;151.150;2023-04-26T02:37:10;23.10;99.90
44047;DHT22;29713;-33.888;151.150;2023-04-26T02:39:38;23.30;99.90
44047;DHT22;29713;-33.888;151.150;2023-04-26T02:42:09;23.50;99.90
44047;DHT22;29713;-33.888;151.150;2023-04-26T02:44:36;23.50;99.90
44047;DHT22;29713;-33.888;151.150;2023-04-26T02:47:05;23.50;99.90
44047;DHT22;29713;-33.888;151.150;2023-04-26T02:49:32;23.60;99.90
44047;DHT22;29713;-33.888;151.150;2023-04-26T02:51:59;23.60;99.90
44047;DHT22;29713;-33.888;151.150;2023-04-26T02:54:27;23.80;99.90
44047;DHT22;29713;-33.888;151.150;2023-04-26T02:56:54;24.00;99.90
44047;DHT22;29713;-33.888;151.150;2023-04-26T02:59:21;24.20;99.90
44047;DHT22;29713;-33.888;151.150;2023-04-26T03:01:49;24.20;99.90
44047;DHT22;29713;-33.888;151.150;2023-04-26T03:04:16;24.40;99.90
44047;DHT22;29713;-33.888;151.150;2023-04-26T03:06:43;24.70;99.90
44047;DHT22;29713;-33.888;151.150;2023-04-26T03:09:11;24.60;99.90
44047;DHT22;29713;-33.888;151.150;2023-04-26T03:11:38;25.10;99.90
44047;DHT22;29713;-33.888;151.150;2023-04-26T03:14:05;25.80;99.90
44047;DHT22;29713;-33.888;151.150;2023-04-26T03:16:40;26.50;99.90
44047;DHT22;29713;-33.888;151.150;2023-04-26T03:19:08;27.10;99.90
44047;DHT22;29713;-33.888;151.150;2023-04-26T03:21:36;27.20;99.90
44047;DHT22;29713;-33.888;151.150;2023-04-26T03:24:03;26.80;99.90
44047;DHT22;29713;-33.888;151.150;2023-04-26T03:26:31;26.30;99.90
44047;DHT22;29713;-33.888;151.150;2023-04-26T03:28:58;25.70;99.90
44047;DHT22;29713;-33.888;151.150;2023-04-26T03:31:25;25.20;99.90
44047;DHT22;29713;-33.888;151.150;2023-04-26T03:33:52;24.80;99.90
44047;DHT22;29713;-33.888;151.150;2023-04-26T03:36:20;24.40;99.90
44047;DHT22;29713;-33.888;151.150;2023-04-26T03:38:47;24.10;99.90
44047;DHT22;29713;-33.888;151.150;2023-04-26T03:41:15;23.80;99.90
44047;DHT22;29713;-33.888;151.150;2023-04-26T03:43:42;23.60;99.90
44047;DHT22;29713;-33.888;151.150;2023-04-26T03:46:09;23.40;99.90
44047;DHT22;29713;-33.888;151.150;2023-04-26T03:48:37;23.30;99.90
44047;DHT22;29713;-33.888;151.150;2023-04-26T03:51:04;23.20;99.90
44047;DHT22;29713;-33.888;151.150;2023-04-26T03:53:32;23.20;99.90
44047;DHT22;29713;-33.888;151.150;2023-04-26T03:55:59;23.10;99.90
44047;DHT22;29713;-33.888;151.150;2023-04-26T03:58:27;23.10;99.90
44047;DHT22;29713;-33.888;151.150;2023-04-26T04:00:57;23.10;99.90
44047;DHT22;29713;-33.888;151.150;2023-04-26T04:03:24;23.00;99.90
44047;DHT22;29713;-33.888;151.150;2023-04-26T04:05:52;22.90;99.90
44047;DHT22;29713;-33.888;151.150;2023-04-26T04:08:19;22.80;99.90
44047;DHT22;29713;-33.888;151.150;2023-04-26T04:10:46;22.80;99.90
44047;DHT22;29713;-33.888;151.150;2023-04-26T04:13:14;22.70;99.90
44047;DHT22;29713;-33.888;151.150;2023-04-26T04:15:41;22.80;99.90
44047;DHT22;29713;-33.888;151.150;2023-04-26T04:18:08;22.70;99.90
44047;DHT22;29713;-33.888;151.150;2023-04-26T04:20:36;22.70;99.90
44047;DHT22;29713;-33.888;151.150;2023-04-26T04:23:04;22.70;99.90
44047;DHT22;29713;-33.888;151.150;2023-04-26T04:25:33;22.80;99.90
44047;DHT22;29713;-33.888;151.150;2023-04-26T04:28:02;22.80;99.90
44047;DHT22;29713;-33.888;151.150;2023-04-26T04:30:29;22.90;99.90
44047;DHT22;29713;-33.888;151.150;2023-04-26T04:32:57;23.00;99.90
44047;DHT22;29713;-33.888;151.150;2023-04-26T04:35:26;23.10;99.90
44047;DHT22;29713;-33.888;151.150;2023-04-26T04:37:59;23.10;99.90
44047;DHT22;29713;-33.888;151.150;2023-04-26T04:40:27;23.10;99.90
44047;DHT22;29713;-33.888;151.150;2023-04-26T04:42:54;23.00;99.90
44047;DHT22;29713;-33.888;151.150;2023-04-26T04:45:22;22.90;99.90
44047;DHT22;29713;-33.888;151.150;2023-04-26T04:47:49;22.90;99.90
44047;DHT22;29713;-33.888;151.150;2023-04-26T04:50:19;22.80;99.90
44047;DHT22;29713;-33.888;151.150;2023-04-26T04:52:47;22.80;99.90
44047;DHT22;29713;-33.888;151.150;2023-04-26T04:55:14;22.90;99.90
44047;DHT22;29713;-33.888;151.150;2023-04-26T04:57:42;23.00;99.90
44047;DHT22;29713;-33.888;151.150;2023-04-26T05:00:09;23.10;99.90
44047;DHT22;29713;-33.888;151.150;2023-04-26T05:02:41;23.20;99.90
44047;DHT22;29713;-33.888;151.150;2023-04-26T05:05:09;23.30;99.90
44047;DHT22;29713;-33.888;151.150;2023-04-26T05:07:36;23.40;99.90
44047;DHT22;29713;-33.888;151.150;2023-04-26T05:10:04;23.60;99.90
44047;DHT22;29713;-33.888;151.150;2023-04-26T05:12:31;23.70;99.90
44047;DHT22;29713;-33.888;151.150;2023-04-26T05:15:00;23.80;99.90
44047;DHT22;29713;-33.888;151.150;2023-04-26T05:17:28;23.80;99.90
44047;DHT22;29713;-33.888;151.150;2023-04-26T05:19:57;23.80;99.90
44047;DHT22;29713;-33.888;151.150;2023-04-26T05:22:26;23.70;99.90
44047;DHT22;29713;-33.888;151.150;2023-04-26T05:24:54;23.70;99.90
44047;DHT22;29713;-33.888;151.150;2023-04-26T05:27:21;23.60;99.90
44047;DHT22;29713;-33.888;151.150;2023-04-26T05:29:48;23.50;99.90
44047;DHT22;29713;-33.888;151.150;2023-04-26T05:32:16;23.40;99.90
44047;DHT22;29713;-33.888;151.150;2023-04-26T05:34:43;23.20;99.90
44047;DHT22;29713;-33.888;151.150;2023-04-26T05:37:10;23.10;99.90
44047;DHT22;29713;-33.888;151.150;2023-04-26T05:39:38;22.90;99.90
44047;DHT22;29713;-33.888;151.150;2023-04-26T05:42:05;22.70;99.90
44047;DHT22;29713;-33.888;151.150;2023-04-26T05:44:33;22.60;99.90
44047;DHT22;29713;-33.888;151.150;2023-04-26T05:47:00;22.50;99.90
44047;DHT22;29713;-33.888;151.150;2023-04-26T05:49:27;22.40;99.90
44047;DHT22;29713;-33.888;151.150;2023-04-26T05:51:55;22.30;99.90
44047;DHT22;29713;-33.888;151.150;2023-04-26T05:54:22;22.30;99.90
44047;DHT22;29713;-33.888;151.150;2023-04-26T05:56:49;22.30;99.90
44047;DHT22;29713;-33.888;151.150;2023-04-26T05:59:17;22.20;99.90
44047;DHT22;29713;-33.888;151.150;2023-04-26T06:01:44;22.20;99.90
44047;DHT22;29713;-33.888;151.150;2023-04-26T06:04:11;22.10;99.90
44047;DHT22;29713;-33.888;151.150;2023-04-26T06:06:39;22.10;99.90
44047;DHT22;29713;-33.888;151.150;2023-04-26T06:09:06;22.10;99.90
44047;DHT22;29713;-33.888;151.150;2023-04-26T06:11:34;22.10;99.90
44047;DHT22;29713;-33.888;151.150;2023-04-26T06:14:01;22.00;99.90
44047;DHT22;29713;-33.888;151.150;2023-04-26T06:16:28;22.00;99.90
44047;DHT22;29713;-33.888;151.150;2023-04-26T06:18:56;22.00;99.90
44047;DHT22;29713;-33.888;151.150;2023-04-26T06:21:23;22.00;99.90
44047;DHT22;29713;-33.888;151.150;2023-04-26T06:23:50;22.00;99.90
44047;DHT22;29713;-33.888;151.150;2023-04-26T06:26:18;21.90;99.90
44047;DHT22;29713;-33.888;151.150;2023-04-26T06:28:45;21.80;99.90
44047;DHT22;29713;-33.888;151.150;2023-04-26T06:31:12;21.80;99.90
44047;DHT22;29713;-33.888;151.150;2023-04-26T06:33:40;21.70;99.90
44047;DHT22;29713;-33.888;151.150;2023-04-26T06:36:11;21.70;99.90
44047;DHT22;29713;-33.888;151.150;2023-04-26T06:38:38;21.60;99.90
44047;DHT22;29713;-33.888;151.150;2023-04-26T06:41:06;21.60;99.90
44047;DHT22;29713;-33.888;151.150;2023-04-26T06:43:33;21.50;99.90
44047;DHT22;29713;-33.888;151.150;2023-04-26T06:46:01;21.50;99.90
44047;DHT22;29713;-33.888;151.150;2023-04-26T06:48:28;21.50;99.90
44047;DHT22;29713;-33.888;151.150;2023-04-26T06:50:56;21.50;99.90
44047;DHT22;29713;-33.888;151.150;2023-04-26T06:53:23;21.50;99.90
44047;DHT22;29713;-33.888;151.150;2023-04-26T06:55:50;21.40;99.90
44047;DHT22;29713;-33.888;151.150;2023-04-26T06:58:19;21.40;99.90
44047;DHT22;29713;-33.888;151.150;2023-04-26T07:00:46;21.30;99.90
44047;DHT22;29713;-33.888;151.150;2023-04-26T07:03:14;21.30;99.90
44047;DHT22;29713;-33.888;151.150;2023-04-26T07:05:41;21.20;99.90
44047;DHT22;29713;-33.888;151.150;2023-04-26T07:08:08;21.10;99.90
44047;DHT22;29713;-33.888;151.150;2023-04-26T07:10:38;21.10;99.90
44047;DHT22;29713;-33.888;151.150;2023-04-26T07:13:05;21.10;99.90
44047;DHT22;29713;-33.888;151.150;2023-04-26T07:15:32;21.00;99.90
44047;DHT22;29713;-33.888;151.150;2023-04-26T07:18:01;20.90;99.90
44047;DHT22;29713;-33.888;151.150;2023-04-26T07:20:29;20.80;99.90
44047;DHT22;29713;-33.888;151.150;2023-04-26T07:22:59;20.80;99.90
44047;DHT22;29713;-33.888;151.150;2023-04-26T07:25:26;20.80;99.90
44047;DHT22;29713;-33.888;151.150;2023-04-26T07:27:53;20.70;99.90
44047;DHT22;29713;-33.888;151.150;2023-04-26T07:30:21;20.70;99.90
44047;DHT22;29713;-33.888;151.150;2023-04-26T07:32:48;20.60;99.90
44047;DHT22;29713;-33.888;151.150;2023-04-26T07:35:16;20.60;99.90
44047;DHT22;29713;-33.888;151.150;2023-04-26T07:37:43;20.50;99.90
44047;DHT22;29713;-33.888;151.150;2023-04-26T07:40:11;20.50;99.90
44047;DHT22;29713;-33.888;151.150;2023-04-26T07:42:39;20.50;99.90
44047;DHT22;29713;-33.888;151.150;2023-04-26T07:45:07;20.50;99.90
44047;DHT22;29713;-33.888;151.150;2023-04-26T07:47:34;20.40;99.90
44047;DHT22;29713;-33.888;151.150;2023-04-26T07:50:01;20.40;99.90
44047;DHT22;29713;-33.888;151.150;2023-04-26T07:52:29;20.40;99.90
44047;DHT22;29713;-33.888;151.150;2023-04-26T07:54:56;20.30;99.90
44047;DHT22;29713;-33.888;151.150;2023-04-26T07:57:24;20.30;99.90
44047;DHT22;29713;-33.888;151.150;2023-04-26T07:59:51;20.30;99.90
44047;DHT22;29713;-33.888;151.150;2023-04-26T08:02:18;20.30;99.90
44047;DHT22;29713;-33.888;151.150;2023-04-26T08:04:49;20.20;99.90
44047;DHT22;29713;-33.888;151.150;2023-04-26T08:07:21;20.20;99.90
44047;DHT22;29713;-33.888;151.150;2023-04-26T08:09:48;20.20;99.90
44047;DHT22;29713;-33.888;151.150;2023-04-26T08:12:16;20.20;99.90
44047;DHT22;29713;-33.888;151.150;2023-04-26T08:14:43;20.20;99.90
44047;DHT22;29713;-33.888;151.150;2023-04-26T08:17:10;20.20;99.90
44047;DHT22;29713;-33.888;151.150;2023-04-26T08:19:38;20.20;99.90
44047;DHT22;29713;-33.888;151.150;2023-04-26T08:22:05;20.10;99.90
44047;DHT22;29713;-33.888;151.150;2023-04-26T08:24:32;20.10;99.90
44047;DHT22;29713;-33.888;151.150;2023-04-26T08:27:00;20.10;99.90
44047;DHT22;29713;-33.888;151.150;2023-04-26T08:29:27;20.10;99.90
44047;DHT22;29713;-33.888;151.150;2023-04-26T08:31:54;20.10;99.90
44047;DHT22;29713;-33.888;151.150;2023-04-26T08:34:22;20.10;99.90
44047;DHT22;29713;-33.888;151.150;2023-04-26T08:36:49;20.10;99.90
44047;DHT22;29713;-33.888;151.150;2023-04-26T08:39:17;20.10;99.90
44047;DHT22;29713;-33.888;151.150;2023-04-26T08:41:58;20.10;99.90
44047;DHT22;29713;-33.888;151.150;2023-04-26T08:44:28;20.10;99.90
44047;DHT22;29713;-33.888;151.150;2023-04-26T08:47:02;20.10;99.90
44047;DHT22;29713;-33.888;151.150;2023-04-26T08:52:10;20.10;99.90
44047;DHT22;29713;-33.888;151.150;2023-04-26T08:54:39;20.10;99.90
44047;DHT22;29713;-33.888;151.150;2023-04-26T08:57:08;20.10;99.90
44047;DHT22;29713;-33.888;151.150;2023-04-26T08:59:39;20.20;99.90
44047;DHT22;29713;-33.888;151.150;2023-04-26T09:02:07;20.20;99.90
44047;DHT22;29713;-33.888;151.150;2023-04-26T09:04:36;20.20;99.90
44047;DHT22;29713;-33.888;151.150;2023-04-26T09:07:04;20.30;99.90
44047;DHT22;29713;-33.888;151.150;2023-04-26T09:09:41;20.30;99.90
44047;DHT22;29713;-33.888;151.150;2023-04-26T09:12:09;20.30;99.90
44047;DHT22;29713;-33.888;151.150;2023-04-26T09:14:37;20.30;99.90
44047;DHT22;29713;-33.888;151.150;2023-04-26T09:17:04;20.40;99.90
44047;DHT22;29713;-33.888;151.150;2023-04-26T09:19:35;20.40;99.90
44047;DHT22;29713;-33.888;151.150;2023-04-26T09:22:03;20.40;99.90
44047;DHT22;29713;-33.888;151.150;2023-04-26T09:24:48;20.40;99.90
44047;DHT22;29713;-33.888;151.150;2023-04-26T09:27:18;20.40;99.90
44047;DHT22;29713;-33.888;151.150;2023-04-26T09:33:02;20.40;99.90
44047;DHT22;29713;-33.888;151.150;2023-04-26T09:35:36;20.30;99.90
44047;DHT22;29713;-33.888;151.150;2023-04-26T09:38:17;20.30;99.90
44047;DHT22;29713;-33.888;151.150;2023-04-26T09:40:49;20.30;99.90
44047;DHT22;29713;-33.888;151.150;2023-04-26T09:43:21;20.30;99.90
44047;DHT22;29713;-33.888;151.150;2023-04-26T09:45:56;20.30;99.90
44047;DHT22;29713;-33.888;151.150;2023-04-26T09:48:32;20.30;99.90
44047;DHT22;29713;-33.888;151.150;2023-04-26T09:51:09;20.30;99.90
44047;DHT22;29713;-33.888;151.150;2023-04-26T09:53:45;20.20;99.90
44047;DHT22;29713;-33.888;151.150;2023-04-26T09:56:17;20.30;99.90
44047;DHT22;29713;-33.888;151.150;2023-04-26T09:58:54;20.20;99.90
44047;DHT22;29713;-33.888;151.150;2023-04-26T10:01:27;20.30;99.90
44047;DHT22;29713;-33.888;151.150;2023-04-26T10:03:56;20.20;99.90
44047;DHT22;29713;-33.888;151.150;2023-04-26T10:06:23;20.20;99.90
44047;DHT22;29713;-33.888;151.150;2023-04-26T10:08:53;20.20;99.90
44047;DHT22;29713;-33.888;151.150;2023-04-26T10:11:21;20.10;99.90
44047;DHT22;29713;-33.888;151.150;2023-04-26T10:13:50;20.10;99.90
44047;DHT22;29713;-33.888;151.150;2023-04-26T10:16:19;20.10;99.90
44047;DHT22;29713;-33.888;151.150;2023-04-26T10:18:47;20.10;99.90
44047;DHT22;29713;-33.888;151.150;2023-04-26T10:21:26;20.10;99.90
44047;DHT22;29713;-33.888;151.150;2023-04-26T10:23:55;20.10;99.90
44047;DHT22;29713;-33.888;151.150;2023-04-26T10:26:51;20.10;99.90
44047;DHT22;29713;-33.888;151.150;2023-04-26T10:32:14;20.10;99.90
44047;DHT22;29713;-33.888;151.150;2023-04-26T10:35:11;20.10;99.90
44047;DHT22;29713;-33.888;151.150;2023-04-26T10:40:37;20.10;99.90
44047;DHT22;29713;-33.888;151.150;2023-04-26T10:45:50;20.10;99.90
44047;DHT22;29713;-33.888;151.150;2023-04-26T10:53:31;20.10;99.90
44047;DHT22;29713;-33.888;151.150;2023-04-26T10:55:58;20.10;99.90
44047;DHT22;29713;-33.888;151.150;2023-04-26T10:58:27;20.10;99.90
44047;DHT22;29713;-33.888;151.150;2023-04-26T11:01:07;20.10;99.90
44047;DHT22;29713;-33.888;151.150;2023-04-26T11:03:40;20.10;99.90
44047;DHT22;29713;-33.888;151.150;2023-04-26T11:06:09;20.10;99.90
44047;DHT22;29713;-33.888;151.150;2023-04-26T11:08:41;20.10;99.90
44047;DHT22;29713;-33.888;151.150;2023-04-26T11:11:11;20.10;99.90
44047;DHT22;29713;-33.888;151.150;2023-04-26T11:13:40;20.10;99.90
44047;DHT22;29713;-33.888;151.150;2023-04-26T11:16:12;20.00;99.90
44047;DHT22;29713;-33.888;151.150;2023-04-26T11:18:44;20.00;99.90
44047;DHT22;29713;-33.888;151.150;2023-04-26T11:21:12;20.00;99.90
44047;DHT22;29713;-33.888;151.150;2023-04-26T11:23:52;20.00;99.90
44047;DHT22;29713;-33.888;151.150;2023-04-26T11:26:20;19.90;99.90
44047;DHT22;29713;-33.888;151.150;2023-04-26T11:28:48;19.90;99.90
44047;DHT22;29713;-33.888;151.150;2023-04-26T11:31:18;19.90;99.90
44047;DHT22;29713;-33.888;151.150;2023-04-26T11:33:45;19.80;99.90
44047;DHT22;29713;-33.888;151.150;2023-04-26T11:36:12;19.80;99.90
44047;DHT22;29713;-33.888;151.150;2023-04-26T11:38:40;19.80;99.90
44047;DHT22;29713;-33.888;151.150;2023-04-26T11:41:07;19.80;99.90
44047;DHT22;29713;-33.888;151.150;2023-04-26T11:43:37;19.80;99.90
44047;DHT22;29713;-33.888;151.150;2023-04-26T11:46:06;19.80;99.90
44047;DHT22;29713;-33.888;151.150;2023-04-26T11:48:36;19.80;99.90
44047;DHT22;29713;-33.888;151.150;2023-04-26T11:51:05;19.80;99.90
44047;DHT22;29713;-33.888;151.150;2023-04-26T11:53:50;19.80;99.90
44047;DHT22;29713;-33.888;151.150;2023-04-26T11:56:19;19.80;99.90
44047;DHT22;29713;-33.888;151.150;2023-04-26T11:58:52;19.70;99.90
44047;DHT22;29713;-33.888;151.150;2023-04-26T12:01:26;19.70;99.90
44047;DHT22;29713;-33.888;151.150;2023-04-26T12:03:55;19.70;99.90
44047;DHT22;29713;-33.888;151.150;2023-04-26T12:06:41;19.70;99.90
44047;DHT22;29713;-33.888;151.150;2023-04-26T12:09:09;19.70;99.90
44047;DHT22;29713;-33.888;151.150;2023-04-26T12:11:40;19.70;99.90
44047;DHT22;29713;-33.888;151.150;2023-04-26T12:14:07;19.70;99.90
44047;DHT22;29713;-33.888;151.150;2023-04-26T12:16:38;19.60;99.90
44047;DHT22;29713;-33.888;151.150;2023-04-26T12:19:06;19.60;99.90
44047;DHT22;29713;-33.888;151.150;2023-04-26T12:21:43;19.60;99.90
44047;DHT22;29713;-33.888;151.150;2023-04-26T12:24:28;19.50;99.90
44047;DHT22;29713;-33.888;151.150;2023-04-26T12:26:59;19.50;99.90
44047;DHT22;29713;-33.888;151.150;2023-04-26T12:29:31;19.50;99.90
44047;DHT22;29713;-33.888;151.150;2023-04-26T12:31:59;19.40;99.90
44047;DHT22;29713;-33.888;151.150;2023-04-26T12:34:29;19.40;99.90
44047;DHT22;29713;-33.888;151.150;2023-04-26T12:36:57;19.40;99.90
44047;DHT22;29713;-33.888;151.150;2023-04-26T12:39:24;19.40;99.90
44047;DHT22;29713;-33.888;151.150;2023-04-26T12:41:51;19.40;99.90
44047;DHT22;29713;-33.888;151.150;2023-04-26T12:44:20;19.30;99.90
44047;DHT22;29713;-33.888;151.150;2023-04-26T12:46:48;19.30;99.90
44047;DHT22;29713;-33.888;151.150;2023-04-26T12:49:15;19.30;99.90
44047;DHT22;29713;-33.888;151.150;2023-04-26T12:51:42;19.30;99.90
44047;DHT22;29713;-33.888;151.150;2023-04-26T12:54:10;19.20;99.90
44047;DHT22;29713;-33.888;151.150;2023-04-26T12:56:37;19.20;99.90
44047;DHT22;29713;-33.888;151.150;2023-04-26T12:59:09;19.20;99.90
44047;DHT22;29713;-33.888;151.150;2023-04-26T13:01:36;19.20;99.90
44047;DHT22;29713;-33.888;151.150;2023-04-26T13:04:04;19.20;99.90
44047;DHT22;29713;-33.888;151.150;2023-04-26T13:06:31;19.20;99.90
44047;DHT22;29713;-33.888;151.150;2023-04-26T13:08:59;19.20;99.90
44047;DHT22;29713;-33.888;151.150;2023-04-26T13:11:27;19.20;99.90
44047;DHT22;29713;-33.888;151.150;2023-04-26T13:13:54;19.20;99.90
44047;DHT22;29713;-33.888;151.150;2023-04-26T13:16:21;19.20;99.90
44047;DHT22;29713;-33.888;151.150;2023-04-26T13:18:49;19.20;99.90
44047;DHT22;29713;-33.888;151.150;2023-04-26T13:21:16;19.20;99.90
44047;DHT22;29713;-33.888;151.150;2023-04-26T13:23:43;19.20;99.90
44047;DHT22;29713;-33.888;151.150;2023-04-26T13:26:12;19.10;99.90
44047;DHT22;29713;-33.888;151.150;2023-04-26T13:28:42;19.10;99.90
44047;DHT22;29713;-33.888;151.150;2023-04-26T13:31:10;19.10;99.90
44047;DHT22;29713;-33.888;151.150;2023-04-26T13:33:37;19.00;99.90
44047;DHT22;29713;-33.888;151.150;2023-04-26T13:36:04;18.90;99.90
44047;DHT22;29713;-33.888;151.150;2023-04-26T13:38:32;18.90;99.90
44047;DHT22;29713;-33.888;151.150;2023-04-26T13:41:00;18.90;99.90
44047;DHT22;29713;-33.888;151.150;2023-04-26T13:43:28;18.90;99.90
44047;DHT22;29713;-33.888;151.150;2023-04-26T13:45:55;18.80;99.90
44047;DHT22;29713;-33.888;151.150;2023-04-26T13:48:22;18.80;99.90
44047;DHT22;29713;-33.888;151.150;2023-04-26T13:50:50;18.70;99.90
44047;DHT22;29713;-33.888;151.150;2023-04-26T13:53:17;18.80;99.90
44047;DHT22;29713;-33.888;151.150;2023-04-26T13:55:50;18.70;99.90
44047;DHT22;29713;-33.888;151.150;2023-04-26T13:58:17;18.70;99.90
44047;DHT22;29713;-33.888;151.150;2023-04-26T14:00:45;18.70;99.90
44047;DHT22;29713;-33.888;151.150;2023-04-26T14:03:12;18.70;99.90
44047;DHT22;29713;-33.888;151.150;2023-04-26T14:05:39;18.70;99.90
44047;DHT22;29713;-33.888;151.150;2023-04-26T14:08:06;18.70;99.90
44047;DHT22;29713;-33.888;151.150;2023-04-26T14:10:34;18.60;99.90
44047;DHT22;29713;-33.888;151.150;2023-04-26T14:13:01;18.70;99.90
44047;DHT22;29713;-33.888;151.150;2023-04-26T14:15:28;18.60;99.90
44047;DHT22;29713;-33.888;151.150;2023-04-26T14:17:59;18.60;99.90
44047;DHT22;29713;-33.888;151.150;2023-04-26T14:20:26;18.60;99.90
44047;DHT22;29713;-33.888;151.150;2023-04-26T14:22:53;18.60;99.90
44047;DHT22;29713;-33.888;151.150;2023-04-26T14:25:21;18.60;99.90
44047;DHT22;29713;-33.888;151.150;2023-04-26T14:27:48;18.60;99.90
44047;DHT22;29713;-33.888;151.150;2023-04-26T14:30:16;18.60;99.90
44047;DHT22;29713;-33.888;151.150;2023-04-26T14:32:43;18.50;99.90
44047;DHT22;29713;-33.888;151.150;2023-04-26T14:35:11;18.50;99.90
44047;DHT22;29713;-33.888;151.150;2023-04-26T14:37:38;18.50;99.90
44047;DHT22;29713;-33.888;151.150;2023-04-26T14:40:06;18.50;99.90
44047;DHT22;29713;-33.888;151.150;2023-04-26T14:42:34;18.40;99.90
44047;DHT22;29713;-33.888;151.150;2023-04-26T14:45:01;18.40;99.90
44047;DHT22;29713;-33.888;151.150;2023-04-26T14:47:29;18.30;99.90
44047;DHT22;29713;-33.888;151.150;2023-04-26T14:49:56;18.20;99.90
44047;DHT22;29713;-33.888;151.150;2023-04-26T14:52:24;18.10;99.90
44047;DHT22;29713;-33.888;151.150;2023-04-26T14:54:54;18.10;99.90
44047;DHT22;29713;-33.888;151.150;2023-04-26T14:57:22;18.10;99.90
44047;DHT22;29713;-33.888;151.150;2023-04-26T14:59:50;18.00;99.90
44047;DHT22;29713;-33.888;151.150;2023-04-26T15:02:17;17.90;99.90
44047;DHT22;29713;-33.888;151.150;2023-04-26T15:04:44;17.90;99.90
44047;DHT22;29713;-33.888;151.150;2023-04-26T15:07:12;17.90;99.90
44047;DHT22;29713;-33.888;151.150;2023-04-26T15:09:40;17.80;99.90
44047;DHT22;29713;-33.888;151.150;2023-04-26T15:12:07;17.80;99.90
44047;DHT22;29713;-33.888;151.150;2023-04-26T15:14:34;17.70;99.90
44047;DHT22;29713;-33.888;151.150;2023-04-26T15:17:02;17.70;99.90